createdAt,value
2023-04-18T00:00:50.201Z,83.00
2023-04-18T00:04:34.102Z,83.10
2023-04-18T00:08:16.376Z,83.00
2023-04-18T00:11:58.064Z,83.10
2023-04-18T00:15:41.689Z,83.20
2023-04-18T00:19:23.608Z,83.20
2023-04-18T00:23:06.242Z,83.30
2023-04-18T00:26:48.864Z,83.20
2023-04-18T00:30:30.628Z,83.20
2023-04-18T00:34:12.636Z,83.40
2023-04-18T00:37:54.579Z,83.50
2023-04-18T00:41:36.528Z,83.70
2023-04-18T00:45:18.229Z,83.80
2023-04-18T00:49:00.045Z,83.90
2023-04-18T00:52:42.266Z,83.90
2023-04-18T00:56:24.257Z,83.90
2023-04-18T01:00:09.873Z,83.90
2023-04-18T01:03:51.739Z,84.10
2023-04-18T01:07:37.235Z,84.00
2023-04-18T01:11:19.080Z,84.40
2023-04-18T01:15:00.857Z,84.20
2023-04-18T01:18:43.307Z,84.00
2023-04-18T01:22:25.504Z,84.10
2023-04-18T01:26:07.564Z,84.00
2023-04-18T01:29:49.284Z,84.10
2023-04-18T01:33:31.093Z,84.50
2023-04-18T01:37:12.865Z,84.90
2023-04-18T01:40:54.595Z,85.10
2023-04-18T01:44:36.291Z,85.10
2023-04-18T01:48:17.992Z,85.00
2023-04-18T01:51:59.689Z,84.80
2023-04-18T01:55:41.419Z,84.60
2023-04-18T01:59:23.116Z,84.70
2023-04-18T02:03:05.036Z,84.50
2023-04-18T02:06:46.810Z,84.30
2023-04-18T02:10:28.573Z,84.10
2023-04-18T02:14:10.323Z,84.00
2023-04-18T02:17:52.132Z,83.90
2023-04-18T02:21:33.940Z,83.90
2023-04-18T02:25:15.797Z,83.90
2023-04-18T02:28:58.605Z,83.90
2023-04-18T02:32:40.389Z,83.80
2023-04-18T02:36:22.143Z,83.80
2023-04-18T02:40:05.024Z,83.90
2023-04-18T02:43:46.869Z,83.90
2023-04-18T02:47:28.596Z,84.00
2023-04-18T02:51:10.830Z,83.90
2023-04-18T02:54:52.784Z,83.90
2023-04-18T02:58:35.820Z,84.00
2023-04-18T03:02:17.687Z,84.10
2023-04-18T03:06:00.286Z,84.20
2023-04-18T03:09:42.047Z,84.40
2023-04-18T03:13:23.833Z,84.60
2023-04-18T03:17:05.702Z,84.70
2023-04-18T03:20:47.530Z,85.00
2023-04-18T03:24:29.336Z,85.30
2023-04-18T03:28:11.025Z,85.60
2023-04-18T03:31:52.734Z,85.80
2023-04-18T03:35:34.805Z,86.10
2023-04-18T03:39:16.557Z,86.30
2023-04-18T03:42:59.744Z,86.30
2023-04-18T03:46:41.691Z,86.40
2023-04-18T03:50:25.633Z,86.70
2023-04-18T03:54:07.350Z,86.90
2023-04-18T03:57:49.097Z,86.90
2023-04-18T04:01:30.975Z,87.00
2023-04-18T04:05:12.777Z,87.00
2023-04-18T04:08:54.515Z,87.00
2023-04-18T04:12:36.368Z,86.90
2023-04-18T04:16:18.203Z,86.70
2023-04-18T04:20:00.006Z,86.70
2023-04-18T04:23:42.512Z,86.90
2023-04-18T04:27:25.084Z,87.00
2023-04-18T04:31:08.301Z,86.80
2023-04-18T04:34:50.477Z,86.70
2023-04-18T04:38:32.531Z,87.20
2023-04-18T04:42:14.222Z,86.70
2023-04-18T04:45:57.630Z,86.70
2023-04-18T04:49:39.460Z,86.90
2023-04-18T04:53:21.677Z,86.90
2023-04-18T04:57:04.298Z,87.30
2023-04-18T05:00:46.238Z,87.40
2023-04-18T05:04:28.110Z,87.30
2023-04-18T05:08:10.040Z,87.20
2023-04-18T05:11:51.761Z,87.40
2023-04-18T05:15:33.507Z,87.40
2023-04-18T05:19:15.333Z,87.60
2023-04-18T05:22:57.157Z,87.50
2023-04-18T05:26:39.772Z,87.50
2023-04-18T05:30:21.622Z,87.50
2023-04-18T05:34:03.308Z,87.60
2023-04-18T05:37:45.018Z,87.60
2023-04-18T05:41:26.748Z,87.70
2023-04-18T05:45:08.833Z,87.70
2023-04-18T05:48:50.606Z,87.60
2023-04-18T05:52:32.703Z,87.60
2023-04-18T05:56:14.525Z,87.70
2023-04-18T05:59:56.367Z,87.80
2023-04-18T06:03:38.474Z,87.90
2023-04-18T06:07:21.455Z,87.90
2023-04-18T06:11:03.432Z,87.90
2023-04-18T06:14:45.219Z,87.90
2023-04-18T06:18:26.994Z,87.80
2023-04-18T06:22:08.821Z,87.80
2023-04-18T06:25:50.761Z,87.80
2023-04-18T06:29:33.276Z,87.90
2023-04-18T06:33:15.443Z,87.90
2023-04-18T06:36:57.228Z,87.90
2023-04-18T06:40:39.251Z,87.70
2023-04-18T06:44:21.621Z,87.80
2023-04-18T06:48:04.577Z,87.80
2023-04-18T06:51:46.497Z,87.90
2023-04-18T06:55:28.329Z,87.90
2023-04-18T06:59:10.121Z,87.70
2023-04-18T07:02:52.049Z,87.80
2023-04-18T07:06:35.155Z,87.50
2023-04-18T07:10:16.875Z,87.40
2023-04-18T07:13:58.809Z,87.30
2023-04-18T07:17:43.581Z,87.00
2023-04-18T07:21:25.637Z,87.00
2023-04-18T07:25:07.893Z,87.30
2023-04-18T07:28:49.753Z,87.40
2023-04-18T07:32:31.665Z,87.30
2023-04-18T07:36:13.734Z,87.10
2023-04-18T07:39:55.519Z,87.10
2023-04-18T07:43:38.759Z,86.90
2023-04-18T07:47:22.265Z,86.70
2023-04-18T07:51:04.508Z,86.30
2023-04-18T07:54:46.388Z,86.40
2023-04-18T07:58:28.263Z,85.10
2023-04-18T08:02:10.069Z,84.60
2023-04-18T08:05:51.990Z,84.80
2023-04-18T08:09:34.347Z,85.10
2023-04-18T08:13:16.124Z,84.90
2023-04-18T08:16:57.849Z,84.40
2023-04-18T08:20:40.168Z,84.00
2023-04-18T08:24:21.952Z,84.30
2023-04-18T08:28:04.089Z,84.30
2023-04-18T08:31:46.065Z,83.40
2023-04-18T08:35:28.147Z,83.00
2023-04-18T08:39:10.291Z,82.20
2023-04-18T08:42:53.326Z,81.80
2023-04-18T08:46:38.253Z,81.30
2023-04-18T08:50:20.037Z,80.60
2023-04-18T08:54:04.579Z,81.30
2023-04-18T08:57:47.454Z,80.80
2023-04-18T09:01:48.422Z,80.50
2023-04-18T09:05:30.216Z,79.60
2023-04-18T09:09:12.402Z,80.00
2023-04-18T09:12:55.408Z,79.80
2023-04-18T09:16:50.486Z,79.80
2023-04-18T09:20:43.714Z,78.70
2023-04-18T09:24:27.144Z,78.70
2023-04-18T09:28:28.761Z,80.00
2023-04-18T09:32:10.560Z,78.30
2023-04-18T09:35:53.252Z,79.90
2023-04-18T09:39:35.179Z,79.80
2023-04-18T09:43:21.346Z,79.20
2023-04-18T09:47:03.360Z,77.90
2023-04-18T09:50:47.017Z,78.30
2023-04-18T09:54:32.348Z,78.10
2023-04-18T09:58:14.811Z,77.70
2023-04-18T10:01:59.389Z,77.60
2023-04-18T10:05:41.729Z,77.30
2023-04-18T10:09:23.936Z,77.70
2023-04-18T10:13:08.470Z,77.70
2023-04-18T10:16:50.696Z,76.90
2023-04-18T10:20:34.580Z,77.10
2023-04-18T10:24:53.586Z,77.80
2023-04-18T10:28:58.817Z,75.60
2023-04-18T10:32:41.060Z,73.00
2023-04-18T10:36:23.071Z,74.00
2023-04-18T10:40:07.673Z,74.00
2023-04-18T10:44:08.520Z,73.30
2023-04-18T10:48:22.871Z,71.60
2023-04-18T10:52:08.503Z,70.70
2023-04-18T10:55:55.526Z,72.60
2023-04-18T10:59:43.398Z,70.40
2023-04-18T11:03:34.044Z,69.40
2023-04-18T11:07:16.045Z,69.30
2023-04-18T11:11:04.126Z,70.60
2023-04-18T11:14:51.993Z,70.30
2023-04-18T11:18:43.539Z,69.40
2023-04-18T11:22:25.889Z,68.20
2023-04-18T11:26:08.677Z,70.00
2023-04-18T11:29:53.988Z,70.30
2023-04-18T11:33:35.781Z,70.00
2023-04-18T11:37:18.373Z,70.60
2023-04-18T11:41:02.645Z,70.60
2023-04-18T11:44:49.130Z,69.80
2023-04-18T11:48:45.445Z,69.80
2023-04-18T11:52:29.236Z,69.10
2023-04-18T11:56:13.608Z,68.80
2023-04-18T12:00:01.550Z,69.00
2023-04-18T12:03:45.431Z,69.30
2023-04-18T12:07:41.535Z,70.00
2023-04-18T12:11:23.359Z,69.10
2023-04-18T12:15:13.588Z,69.20
2023-04-18T12:19:00.858Z,68.20
2023-04-18T12:22:49.498Z,68.50
2023-04-18T12:26:31.330Z,68.40
2023-04-18T12:30:14.614Z,69.40
2023-04-18T12:33:56.312Z,68.60
2023-04-18T12:37:38.136Z,68.10
2023-04-18T12:41:21.419Z,67.90
2023-04-18T12:45:07.760Z,68.10
2023-04-18T12:48:49.515Z,67.40
2023-04-18T12:52:31.624Z,68.00
2023-04-18T12:56:13.477Z,68.00
2023-04-18T12:59:55.318Z,67.50
2023-04-18T13:03:37.288Z,67.00
2023-04-18T13:07:19.548Z,66.80
2023-04-18T13:11:01.436Z,65.80
2023-04-18T13:14:43.253Z,66.10
2023-04-18T13:18:24.997Z,65.80
2023-04-18T13:22:06.767Z,64.70
2023-04-18T13:25:48.611Z,64.20
2023-04-18T13:29:30.653Z,63.60
2023-04-18T13:33:12.617Z,63.50
2023-04-18T13:36:54.360Z,62.80
2023-04-18T13:40:38.706Z,61.60
2023-04-18T13:44:20.933Z,61.50
2023-04-18T13:48:02.725Z,62.00
2023-04-18T13:51:44.629Z,61.40
2023-04-18T13:55:26.972Z,61.40
2023-04-18T13:59:08.824Z,61.80
2023-04-18T14:02:50.963Z,61.40
2023-04-18T14:06:33.174Z,61.70
2023-04-18T14:10:14.948Z,61.70
2023-04-18T14:13:57.085Z,60.80
2023-04-18T14:17:39.051Z,60.80
2023-04-18T14:21:20.835Z,60.20
2023-04-18T14:25:02.720Z,60.40
2023-04-18T14:28:45.913Z,59.50
2023-04-18T14:32:27.647Z,59.90
2023-04-18T14:36:09.806Z,60.00
2023-04-18T14:39:51.516Z,59.90
2023-04-18T14:43:33.312Z,59.60
2023-04-18T14:47:15.244Z,59.10
2023-04-18T14:50:58.550Z,58.90
2023-04-18T14:54:40.301Z,59.40
2023-04-18T14:58:22.048Z,58.80
2023-04-18T15:02:04.259Z,58.50
2023-04-18T15:05:49.151Z,58.70
2023-04-18T15:09:35.475Z,59.00
2023-04-18T15:13:17.396Z,58.80
2023-04-18T15:16:59.435Z,59.10
2023-04-18T15:20:41.156Z,59.00
2023-04-18T15:24:22.905Z,59.50
2023-04-18T15:28:05.789Z,59.60
2023-04-18T15:31:47.519Z,59.90
2023-04-18T15:35:29.287Z,59.70
2023-04-18T15:39:11.038Z,59.70
2023-04-18T15:42:54.284Z,59.80
2023-04-18T15:46:36.657Z,60.80
2023-04-18T15:50:18.579Z,60.30
2023-04-18T15:54:00.326Z,60.50
2023-04-18T15:57:42.281Z,60.50
2023-04-18T16:01:24.081Z,60.50
2023-04-18T16:05:07.361Z,60.60
2023-04-18T16:08:52.451Z,60.70
2023-04-18T16:12:34.749Z,61.00
2023-04-18T16:16:16.832Z,61.20
2023-04-18T16:19:58.685Z,61.40
2023-04-18T16:23:40.532Z,61.70
2023-04-18T16:27:22.321Z,61.70
2023-04-18T16:31:05.959Z,62.00
2023-04-18T16:34:48.386Z,61.90
2023-04-18T16:38:30.311Z,62.10
2023-04-18T16:42:14.039Z,62.10
2023-04-18T16:45:57.763Z,62.30
2023-04-18T16:49:39.786Z,63.10
2023-04-18T16:53:22.675Z,62.50
2023-04-18T16:57:04.772Z,62.70
2023-04-18T17:00:46.922Z,62.90
2023-04-18T17:04:29.156Z,63.10
2023-04-18T17:08:10.995Z,63.30
2023-04-18T17:11:52.744Z,63.50
2023-04-18T17:15:34.455Z,63.60
2023-04-18T17:19:16.515Z,63.80
2023-04-18T17:22:58.439Z,63.80
2023-04-18T17:26:40.556Z,63.70
2023-04-18T17:30:22.384Z,63.80
2023-04-18T17:34:04.090Z,63.90
2023-04-18T17:37:47.532Z,63.70
2023-04-18T17:41:29.238Z,63.50
2023-04-18T17:45:11.024Z,63.60
2023-04-18T17:48:52.737Z,63.70
2023-04-18T17:52:34.484Z,63.70
2023-04-18T17:56:16.579Z,63.80
2023-04-18T17:59:58.302Z,64.10
2023-04-18T18:03:40.270Z,64.20
2023-04-18T18:07:22.211Z,64.20
2023-04-18T18:11:06.003Z,64.10
2023-04-18T18:14:47.772Z,64.30
2023-04-18T18:18:32.748Z,64.40
2023-04-18T18:22:14.490Z,64.30
2023-04-18T18:25:56.241Z,64.20
2023-04-18T18:29:37.935Z,64.30
2023-04-18T18:33:19.740Z,64.40
2023-04-18T18:37:01.508Z,64.60
2023-04-18T18:40:43.331Z,64.70
2023-04-18T18:44:25.254Z,64.90
2023-04-18T18:48:10.386Z,65.00
2023-04-18T18:51:52.573Z,65.10
2023-04-18T18:55:34.330Z,65.30
2023-04-18T18:59:16.209Z,65.40
2023-04-18T19:02:58.187Z,65.60
2023-04-18T19:06:40.181Z,65.80
2023-04-18T19:10:21.975Z,65.90
2023-04-18T19:14:03.798Z,66.10
2023-04-18T19:17:45.669Z,66.90
2023-04-18T19:21:28.561Z,66.40
2023-04-18T19:25:10.495Z,66.50
2023-04-18T19:28:52.733Z,66.60
2023-04-18T19:32:34.520Z,66.60
2023-04-18T19:44:24.340Z,66.90
2023-04-18T19:48:06.337Z,66.80
2023-04-18T19:51:49.050Z,67.00
2023-04-18T19:55:30.889Z,67.20
2023-04-18T19:59:13.002Z,67.30
2023-04-18T20:02:55.478Z,67.50
2023-04-18T20:06:38.704Z,67.50
2023-04-18T20:10:22.478Z,67.70
2023-04-18T20:14:04.790Z,67.90
2023-04-18T20:17:46.563Z,67.90
2023-04-18T20:21:28.364Z,68.00
2023-04-18T20:25:10.100Z,68.00
2023-04-18T20:28:51.903Z,68.20
2023-04-18T20:32:34.521Z,68.20
2023-04-18T20:36:17.646Z,68.40
2023-04-18T20:40:02.716Z,68.60
2023-04-18T20:43:46.024Z,68.70
2023-04-18T20:47:27.755Z,68.50
2023-04-18T20:51:09.475Z,68.80
2023-04-18T20:54:51.154Z,68.40
2023-04-18T20:58:32.851Z,68.50
2023-04-18T21:02:14.696Z,68.60
2023-04-18T21:05:56.483Z,68.60
2023-04-18T21:09:38.333Z,68.80
2023-04-18T21:13:20.047Z,68.80
2023-04-18T21:17:01.882Z,68.90
2023-04-18T21:20:43.828Z,69.00
2023-04-18T21:24:25.536Z,69.20
2023-04-18T21:28:08.026Z,69.20
2023-04-18T21:31:50.229Z,69.40
2023-04-18T21:35:32.159Z,69.60
2023-04-18T21:39:13.908Z,69.70
2023-04-18T21:42:55.692Z,69.90
2023-04-18T21:46:37.600Z,70.10
2023-04-18T21:50:19.483Z,70.30
2023-04-18T21:54:08.374Z,70.40
2023-04-18T21:57:50.425Z,70.80
2023-04-18T22:01:34.908Z,70.70
2023-04-18T22:05:19.134Z,70.80
2023-04-18T22:09:02.866Z,71.10
2023-04-18T22:12:47.513Z,71.30
2023-04-18T22:16:31.284Z,71.20
2023-04-18T22:20:13.151Z,71.30
2023-04-18T22:23:59.289Z,71.40
2023-04-18T22:27:43.063Z,71.50
2023-04-18T22:31:24.999Z,71.70
2023-04-18T22:35:07.833Z,71.60
2023-04-18T22:38:57.987Z,71.70
2023-04-18T22:42:40.006Z,71.90
2023-04-18T22:46:27.184Z,71.90
2023-04-18T22:50:09.877Z,72.30
2023-04-18T22:53:51.798Z,72.10
2023-04-18T22:57:34.134Z,72.10
2023-04-18T23:01:19.987Z,72.50
2023-04-18T23:05:02.689Z,72.40
2023-04-18T23:08:45.601Z,72.30
2023-04-18T23:12:27.782Z,72.60
2023-04-18T23:16:10.459Z,72.60
2023-04-18T23:19:53.009Z,72.70
2023-04-18T23:23:36.393Z,73.50
2023-04-18T23:27:19.269Z,72.90
2023-04-18T23:31:05.101Z,74.00
2023-04-18T23:34:49.768Z,72.80
2023-04-18T23:38:33.790Z,73.00
2023-04-18T23:42:18.485Z,73.10
2023-04-18T23:46:02.177Z,73.40
2023-04-18T23:49:44.136Z,73.50
2023-04-18T23:53:28.999Z,74.60
2023-04-18T23:57:10.687Z,73.40
